sensor_id;sensor_type;location;lat;lon;timestamp;pressure;altitude;pressure_sealevel;temperature;humidity
6224;BME280;3145;42.726;23.342;2024-02-15T00:02:14;73806.09;;;-142.70;56.47
6224;BME280;3145;42.726;23.342;2024-02-15T00:04:42;73800.06;;;-142.70;56.48
6224;BME280;3145;42.726;23.342;2024-02-15T00:07:10;73814.16;;;-142.70;56.46
6224;BME280;3145;42.726;23.342;2024-02-15T00:09:36;73812.16;;;-142.70;56.38
6224;BME280;3145;42.726;23.342;2024-02-15T00:12:03;73806.09;;;-142.70;56.22
6224;BME280;3145;42.726;23.342;2024-02-15T00:14:30;73810.13;;;-142.70;56.71
6224;BME280;3145;42.726;23.342;2024-02-15T00:16:57;73808.13;;;-142.70;56.91
6224;BME280;3145;42.726;23.342;2024-02-15T00:19:25;73822.22;;;-142.70;56.86
6224;BME280;3145;42.726;23.342;2024-02-15T00:21:56;73818.19;;;-142.70;57.13
6224;BME280;3145;42.726;23.342;2024-02-15T00:24:23;73830.28;;;-142.70;57.08
6224;BME280;3145;42.726;23.342;2024-02-15T00:26:50;73826.25;;;-142.70;56.84
6224;BME280;3145;42.726;23.342;2024-02-15T00:29:16;73822.22;;;-142.70;56.60
6224;BME280;3145;42.726;23.342;2024-02-15T00:31:43;73826.25;;;-142.70;56.83
6224;BME280;3145;42.726;23.342;2024-02-15T00:34:10;73834.31;;;-142.70;57.08
6224;BME280;3145;42.726;23.342;2024-02-15T00:36:36;73834.31;;;-142.70;57.09
6224;BME280;3145;42.726;23.342;2024-02-15T00:39:04;73846.41;;;-142.70;57.33
6224;BME280;3145;42.726;23.342;2024-02-15T00:41:31;73834.31;;;-142.70;57.44
6224;BME280;3145;42.726;23.342;2024-02-15T00:43:59;73836.31;;;-142.70;57.28
6224;BME280;3145;42.726;23.342;2024-02-15T00:46:25;73830.28;;;-142.70;57.52
6224;BME280;3145;42.726;23.342;2024-02-15T00:48:54;73842.38;;;-142.70;57.46
6224;BME280;3145;42.726;23.342;2024-02-15T00:51:21;73834.31;;;-142.70;57.29
6224;BME280;3145;42.726;23.342;2024-02-15T00:53:47;73834.31;;;-142.70;57.01
6224;BME280;3145;42.726;23.342;2024-02-15T00:56:15;73826.25;;;-142.70;57.44
6224;BME280;3145;42.726;23.342;2024-02-15T00:58:42;73834.31;;;-142.70;57.37
6224;BME280;3145;42.726;23.342;2024-02-15T01:01:09;73838.34;;;-142.70;57.29
6224;BME280;3145;42.726;23.342;2024-02-15T01:03:36;73830.28;;;-142.70;56.81
6224;BME280;3145;42.726;23.342;2024-02-15T01:06:04;73832.28;;;-142.70;56.91
6224;BME280;3145;42.726;23.342;2024-02-15T01:08:30;73834.31;;;-142.70;57.06
6224;BME280;3145;42.726;23.342;2024-02-15T01:10:58;73838.34;;;-142.70;57.13
6224;BME280;3145;42.726;23.342;2024-02-15T01:13:26;73836.31;;;-142.70;57.01
6224;BME280;3145;42.726;23.342;2024-02-15T01:15:52;73830.28;;;-142.70;56.98
6224;BME280;3145;42.726;23.342;2024-02-15T01:18:20;73842.38;;;-142.70;56.98
6224;BME280;3145;42.726;23.342;2024-02-15T01:20:47;73838.34;;;-142.70;57.16
6224;BME280;3145;42.726;23.342;2024-02-15T01:23:13;73840.34;;;-142.70;57.33
6224;BME280;3145;42.726;23.342;2024-02-15T01:25:40;73838.34;;;-142.70;57.43
6224;BME280;3145;42.726;23.342;2024-02-15T01:28:06;73834.31;;;-142.70;57.24
6224;BME280;3145;42.726;23.342;2024-02-15T01:30:34;73834.31;;;-142.70;57.48
6224;BME280;3145;42.726;23.342;2024-02-15T01:33:01;73834.31;;;-142.70;57.61
6224;BME280;3145;42.726;23.342;2024-02-15T01:35:28;73830.28;;;-142.70;57.29
6224;BME280;3145;42.726;23.342;2024-02-15T01:37:55;73826.25;;;-142.70;56.58
6224;BME280;3145;42.726;23.342;2024-02-15T01:40:21;73828.25;;;-142.70;56.68
6224;BME280;3145;42.726;23.342;2024-02-15T01:42:48;73842.38;;;-142.70;57.08
6224;BME280;3145;42.726;23.342;2024-02-15T01:45:15;73848.41;;;-142.70;56.97
6224;BME280;3145;42.726;23.342;2024-02-15T01:47:43;73854.47;;;-142.70;57.23
6224;BME280;3145;42.726;23.342;2024-02-15T01:50:11;73842.38;;;-142.70;56.70
6224;BME280;3145;42.726;23.342;2024-02-15T01:52:39;73854.47;;;-142.70;56.90
6224;BME280;3145;42.726;23.342;2024-02-15T01:55:08;73854.47;;;-142.70;57.25
6224;BME280;3145;42.726;23.342;2024-02-15T01:57:35;73854.47;;;-142.70;57.61
6224;BME280;3145;42.726;23.342;2024-02-15T02:00:03;73854.47;;;-142.70;57.69
6224;BME280;3145;42.726;23.342;2024-02-15T02:02:32;73866.56;;;-142.70;57.63
6224;BME280;3145;42.726;23.342;2024-02-15T02:05:02;73862.53;;;-142.70;57.76
6224;BME280;3145;42.726;23.342;2024-02-15T02:07:28;73858.50;;;-142.70;57.68
6224;BME280;3145;42.726;23.342;2024-02-15T02:09:55;73866.56;;;-142.70;57.98
6224;BME280;3145;42.726;23.342;2024-02-15T02:12:22;73866.56;;;-142.70;58.04
6224;BME280;3145;42.726;23.342;2024-02-15T02:14:50;73866.56;;;-142.70;57.84
6224;BME280;3145;42.726;23.342;2024-02-15T02:17:16;73870.59;;;-142.70;58.07
6224;BME280;3145;42.726;23.342;2024-02-15T02:19:45;73874.63;;;-142.70;57.94
6224;BME280;3145;42.726;23.342;2024-02-15T02:22:17;73874.63;;;-142.70;57.94
6224;BME280;3145;42.726;23.342;2024-02-15T02:24:56;73866.56;;;-142.70;58.13
6224;BME280;3145;42.726;23.342;2024-02-15T02:27:25;73870.59;;;-142.70;57.77
6224;BME280;3145;42.726;23.342;2024-02-15T02:29:53;73874.63;;;-142.70;57.82
6224;BME280;3145;42.726;23.342;2024-02-15T02:32:20;73878.66;;;-142.70;58.25
6224;BME280;3145;42.726;23.342;2024-02-15T02:34:46;73880.66;;;-142.70;58.42
6224;BME280;3145;42.726;23.342;2024-02-15T02:37:13;73886.72;;;-142.70;58.40
6224;BME280;3145;42.726;23.342;2024-02-15T02:39:41;73886.72;;;-142.70;58.45
6224;BME280;3145;42.726;23.342;2024-02-15T02:42:09;73896.78;;;-142.70;58.77
6224;BME280;3145;42.726;23.342;2024-02-15T02:44:36;73886.72;;;-142.70;58.71
6224;BME280;3145;42.726;23.342;2024-02-15T02:47:03;73894.78;;;-142.70;58.82
6224;BME280;3145;42.726;23.342;2024-02-15T02:49:30;73898.81;;;-142.70;59.13
6224;BME280;3145;42.726;23.342;2024-02-15T02:51:56;73890.75;;;-142.70;59.08
6224;BME280;3145;42.726;23.342;2024-02-15T02:54:23;73898.81;;;-142.70;59.07
6224;BME280;3145;42.726;23.342;2024-02-15T02:56:50;73894.78;;;-142.70;59.38
6224;BME280;3145;42.726;23.342;2024-02-15T02:59:18;73904.84;;;-142.70;59.10
6224;BME280;3145;42.726;23.342;2024-02-15T03:01:45;73898.81;;;-142.70;59.10
6224;BME280;3145;42.726;23.342;2024-02-15T03:04:11;73910.91;;;-142.70;59.32
6224;BME280;3145;42.726;23.342;2024-02-15T03:06:42;73902.84;;;-142.70;59.36
6224;BME280;3145;42.726;23.342;2024-02-15T03:09:09;73902.84;;;-142.70;59.44
6224;BME280;3145;42.726;23.342;2024-02-15T03:11:35;73898.81;;;-142.70;59.54
6224;BME280;3145;42.726;23.342;2024-02-15T03:14:03;73908.88;;;-142.70;59.38
6224;BME280;3145;42.726;23.342;2024-02-15T03:16:31;73906.88;;;-142.70;59.73
6224;BME280;3145;42.726;23.342;2024-02-15T03:18:59;73910.91;;;-142.70;59.62
6224;BME280;3145;42.726;23.342;2024-02-15T03:21:27;73914.94;;;-142.70;59.86
6224;BME280;3145;42.726;23.342;2024-02-15T03:23:54;73918.97;;;-142.70;59.72
6224;BME280;3145;42.726;23.342;2024-02-15T03:26:29;73923.00;;;-142.70;60.13
6224;BME280;3145;42.726;23.342;2024-02-15T03:28:56;73925.00;;;-142.70;60.28
6224;BME280;3145;42.726;23.342;2024-02-15T03:31:23;73927.00;;;-142.70;60.04
6224;BME280;3145;42.726;23.342;2024-02-15T03:33:51;73935.06;;;-142.70;60.37
6224;BME280;3145;42.726;23.342;2024-02-15T03:36:19;73935.06;;;-142.70;60.13
6224;BME280;3145;42.726;23.342;2024-02-15T03:38:47;73935.06;;;-142.70;60.43
6224;BME280;3145;42.726;23.342;2024-02-15T03:41:13;73945.16;;;-142.70;60.40
6224;BME280;3145;42.726;23.342;2024-02-15T03:43:40;73939.09;;;-142.70;60.73
6224;BME280;3145;42.726;23.342;2024-02-15T03:46:07;73939.09;;;-142.70;60.95
6224;BME280;3145;42.726;23.342;2024-02-15T03:48:37;73943.13;;;-142.70;60.61
6224;BME280;3145;42.726;23.342;2024-02-15T03:51:05;73949.19;;;-142.70;60.74
6224;BME280;3145;42.726;23.342;2024-02-15T03:53:32;73943.13;;;-142.70;61.11
6224;BME280;3145;42.726;23.342;2024-02-15T03:56:03;73949.19;;;-142.70;61.14
6224;BME280;3145;42.726;23.342;2024-02-15T03:58:30;73949.19;;;-142.70;61.09
6224;BME280;3145;42.726;23.342;2024-02-15T04:00:58;73951.19;;;-142.70;60.96
6224;BME280;3145;42.726;23.342;2024-02-15T04:03:25;73951.19;;;-142.70;60.84
6224;BME280;3145;42.726;23.342;2024-02-15T04:05:52;73951.19;;;-142.70;61.14
6224;BME280;3145;42.726;23.342;2024-02-15T04:08:21;73963.28;;;-142.70;61.44
6224;BME280;3145;42.726;23.342;2024-02-15T04:10:48;73961.28;;;-142.70;61.24
6224;BME280;3145;42.726;23.342;2024-02-15T04:13:15;73977.41;;;-142.70;61.67
6224;BME280;3145;42.726;23.342;2024-02-15T04:15:41;73965.31;;;-142.70;61.14
6224;BME280;3145;42.726;23.342;2024-02-15T04:18:09;73975.38;;;-142.70;61.63
6224;BME280;3145;42.726;23.342;2024-02-15T04:20:36;73973.38;;;-142.70;62.19
6224;BME280;3145;42.726;23.342;2024-02-15T04:23:03;73983.44;;;-142.70;62.23
6224;BME280;3145;42.726;23.342;2024-02-15T04:25:31;73967.31;;;-142.70;62.03
6224;BME280;3145;42.726;23.342;2024-02-15T04:27:59;73967.31;;;-142.70;62.05
6224;BME280;3145;42.726;23.342;2024-02-15T04:30:29;73963.28;;;-142.70;61.67
6224;BME280;3145;42.726;23.342;2024-02-15T04:32:55;73967.31;;;-142.70;61.47
6224;BME280;3145;42.726;23.342;2024-02-15T04:35:22;73981.44;;;-142.70;61.80
6224;BME280;3145;42.726;23.342;2024-02-15T04:37:50;73969.34;;;-142.70;61.89
6224;BME280;3145;42.726;23.342;2024-02-15T04:40:18;73973.38;;;-142.70;62.04
6224;BME280;3145;42.726;23.342;2024-02-15T04:42:46;73975.38;;;-142.70;61.73
6224;BME280;3145;42.726;23.342;2024-02-15T04:45:14;73979.41;;;-142.70;63.52
6224;BME280;3145;42.726;23.342;2024-02-15T04:47:40;73985.47;;;-142.70;62.72
6224;BME280;3145;42.726;23.342;2024-02-15T04:50:08;73983.44;;;-142.70;62.09
6224;BME280;3145;42.726;23.342;2024-02-15T04:52:35;73995.53;;;-142.70;62.05
6224;BME280;3145;42.726;23.342;2024-02-15T04:55:02;73987.47;;;-142.70;62.34
6224;BME280;3145;42.726;23.342;2024-02-15T04:57:30;73991.50;;;-142.70;62.37
6224;BME280;3145;42.726;23.342;2024-02-15T05:00:00;73987.47;;;-142.70;62.15
6224;BME280;3145;42.726;23.342;2024-02-15T05:02:27;73995.53;;;-142.70;62.50
6224;BME280;3145;42.726;23.342;2024-02-15T05:04:53;74003.59;;;-142.70;62.29
6224;BME280;3145;42.726;23.342;2024-02-15T05:07:21;74003.59;;;-142.70;62.32
6224;BME280;3145;42.726;23.342;2024-02-15T05:09:48;74003.59;;;-142.70;62.45
6224;BME280;3145;42.726;23.342;2024-02-15T05:12:22;74007.63;;;-142.70;62.47
6224;BME280;3145;42.726;23.342;2024-02-15T05:14:49;74013.69;;;-142.70;62.62
6224;BME280;3145;42.726;23.342;2024-02-15T05:17:17;74019.72;;;-142.70;62.82
6224;BME280;3145;42.726;23.342;2024-02-15T05:19:44;74021.75;;;-142.70;62.88
6224;BME280;3145;42.726;23.342;2024-02-15T05:22:11;74015.69;;;-142.70;62.80
6224;BME280;3145;42.726;23.342;2024-02-15T05:24:39;74017.72;;;-142.70;63.24
6224;BME280;3145;42.726;23.342;2024-02-15T05:27:05;74023.75;;;-142.70;62.77
6224;BME280;3145;42.726;23.342;2024-02-15T05:29:32;74027.78;;;-142.70;62.90
6224;BME280;3145;42.726;23.342;2024-02-15T05:32:01;74021.75;;;-142.70;63.02
6224;BME280;3145;42.726;23.342;2024-02-15T05:34:29;74031.81;;;-142.70;63.09
6224;BME280;3145;42.726;23.342;2024-02-15T05:36:56;74047.94;;;-142.70;63.45
6224;BME280;3145;42.726;23.342;2024-02-15T05:39:22;74039.88;;;-142.70;63.60
6224;BME280;3145;42.726;23.342;2024-02-15T05:41:50;74056.00;;;-142.70;63.63
6224;BME280;3145;42.726;23.342;2024-02-15T05:44:17;74058.00;;;-142.70;63.53
6224;BME280;3145;42.726;23.342;2024-02-15T05:46:46;74051.97;;;-142.70;63.40
6224;BME280;3145;42.726;23.342;2024-02-15T05:49:13;74056.00;;;-142.70;63.58
6224;BME280;3145;42.726;23.342;2024-02-15T05:51:44;74051.97;;;-142.70;63.78
6224;BME280;3145;42.726;23.342;2024-02-15T05:54:12;74056.00;;;-142.70;63.73
6224;BME280;3145;42.726;23.342;2024-02-15T05:56:42;74056.00;;;-142.70;63.43
6224;BME280;3145;42.726;23.342;2024-02-15T05:59:08;74056.00;;;-142.70;63.49
6224;BME280;3145;42.726;23.342;2024-02-15T06:01:36;74060.03;;;-142.70;63.25
6224;BME280;3145;42.726;23.342;2024-02-15T06:04:04;74056.00;;;-142.70;63.35
6224;BME280;3145;42.726;23.342;2024-02-15T06:06:34;74080.19;;;-142.70;63.68
6224;BME280;3145;42.726;23.342;2024-02-15T06:09:02;74064.06;;;-142.70;63.70
6224;BME280;3145;42.726;23.342;2024-02-15T06:11:30;74064.06;;;-142.70;63.68
6224;BME280;3145;42.726;23.342;2024-02-15T06:13:57;74060.03;;;-142.70;63.55
6224;BME280;3145;42.726;23.342;2024-02-15T06:16:24;74078.16;;;-142.70;63.32
6224;BME280;3145;42.726;23.342;2024-02-15T06:18:50;74070.09;;;-142.70;63.38
6224;BME280;3145;42.726;23.342;2024-02-15T06:21:17;74060.03;;;-142.70;63.32
6224;BME280;3145;42.726;23.342;2024-02-15T06:23:46;74049.94;;;-142.70;63.35
6224;BME280;3145;42.726;23.342;2024-02-15T06:26:15;74035.84;;;-142.70;63.08
6224;BME280;3145;42.726;23.342;2024-02-15T06:28:42;74033.84;;;-142.70;62.99
6224;BME280;3145;42.726;23.342;2024-02-15T06:31:26;74029.81;;;-142.70;62.38
6224;BME280;3145;42.726;23.342;2024-02-15T06:34:10;74019.72;;;-142.70;61.95
6224;BME280;3145;42.726;23.342;2024-02-15T06:36:59;74003.59;;;-142.70;61.97
6224;BME280;3145;42.726;23.342;2024-02-15T06:39:43;73987.47;;;-142.70;61.27
6224;BME280;3145;42.726;23.342;2024-02-15T06:42:13;73979.41;;;-142.70;60.88
6224;BME280;3145;42.726;23.342;2024-02-15T06:44:42;73979.41;;;-142.70;60.13
6224;BME280;3145;42.726;23.342;2024-02-15T06:47:08;73985.47;;;-142.70;59.83
6224;BME280;3145;42.726;23.342;2024-02-15T06:49:36;73973.38;;;-142.70;59.70
6224;BME280;3145;42.726;23.342;2024-02-15T06:52:05;73959.25;;;-142.70;59.58
6224;BME280;3145;42.726;23.342;2024-02-15T06:54:32;73906.88;;;-142.70;59.30
6224;BME280;3145;42.726;23.342;2024-02-15T06:57:01;73798.03;;;-142.70;57.18
6224;BME280;3145;42.726;23.342;2024-02-15T06:59:29;73699.28;;;-142.70;54.88
6224;BME280;3145;42.726;23.342;2024-02-15T07:01:57;73632.78;;;-142.70;51.17
6224;BME280;3145;42.726;23.342;2024-02-15T07:04:23;73576.38;;;-142.70;50.43
6224;BME280;3145;42.726;23.342;2024-02-15T07:06:51;73507.84;;;-142.70;47.79
6224;BME280;3145;42.726;23.342;2024-02-15T07:09:19;73461.50;;;-142.70;47.13
6224;BME280;3145;42.726;23.342;2024-02-15T07:11:48;73415.16;;;-142.70;46.47
6224;BME280;3145;42.726;23.342;2024-02-15T07:14:15;73358.75;;;-142.70;45.32
6224;BME280;3145;42.726;23.342;2024-02-15T07:16:45;73308.38;;;-142.70;44.07
6224;BME280;3145;42.726;23.342;2024-02-15T07:19:12;73258.00;;;-142.70;43.64
6224;BME280;3145;42.726;23.342;2024-02-15T07:21:39;73251.94;;;-142.70;42.58
6224;BME280;3145;42.726;23.342;2024-02-15T07:24:06;73205.59;;;-142.70;42.25
6224;BME280;3145;42.726;23.342;2024-02-15T07:26:33;73185.47;;;-142.70;42.08
6224;BME280;3145;42.726;23.342;2024-02-15T07:29:02;73149.19;;;-142.70;42.66
6224;BME280;3145;42.726;23.342;2024-02-15T07:31:32;73110.91;;;-142.70;41.31
6224;BME280;3145;42.726;23.342;2024-02-15T07:34:01;73096.81;;;-142.70;40.00
6224;BME280;3145;42.726;23.342;2024-02-15T07:36:28;73080.69;;;-142.70;39.36
6224;BME280;3145;42.726;23.342;2024-02-15T07:38:55;73066.59;;;-142.70;39.85
6224;BME280;3145;42.726;23.342;2024-02-15T07:41:26;73100.84;;;-142.70;39.64
6224;BME280;3145;42.726;23.342;2024-02-15T07:43:53;73094.78;;;-142.70;39.23
6224;BME280;3145;42.726;23.342;2024-02-15T07:46:20;73048.44;;;-142.70;39.74
6224;BME280;3145;42.726;23.342;2024-02-15T07:48:48;73010.16;;;-142.70;39.23
6224;BME280;3145;42.726;23.342;2024-02-15T07:51:16;73000.09;;;-142.70;38.53
6224;BME280;3145;42.726;23.342;2024-02-15T07:53:44;72983.97;;;-142.70;37.97
6224;BME280;3145;42.726;23.342;2024-02-15T07:56:11;72988.00;;;-142.70;37.42
6224;BME280;3145;42.726;23.342;2024-02-15T07:58:39;72988.00;;;-142.70;37.40
6224;BME280;3145;42.726;23.342;2024-02-15T08:01:07;72923.53;;;-142.70;37.92
6224;BME280;3145;42.726;23.342;2024-02-15T08:03:34;72903.38;;;-142.70;37.00
6224;BME280;3145;42.726;23.342;2024-02-15T08:06:01;72911.44;;;-142.70;36.44
6224;BME280;3145;42.726;23.342;2024-02-15T08:08:33;72931.59;;;-142.70;37.06
6224;BME280;3145;42.726;23.342;2024-02-15T08:11:02;72923.53;;;-142.70;36.80
6224;BME280;3145;42.726;23.342;2024-02-15T08:13:29;72947.72;;;-142.70;37.57
6224;BME280;3145;42.726;23.342;2024-02-15T08:15:55;72923.53;;;-142.70;37.37
6224;BME280;3145;42.726;23.342;2024-02-15T08:18:22;72899.34;;;-142.70;36.70
6224;BME280;3145;42.726;23.342;2024-02-15T08:20:50;72943.69;;;-142.70;38.05
6224;BME280;3145;42.726;23.342;2024-02-15T08:23:16;72903.38;;;-142.70;38.21
6224;BME280;3145;42.726;23.342;2024-02-15T08:25:44;72913.47;;;-142.70;36.39
6224;BME280;3145;42.726;23.342;2024-02-15T08:28:11;72875.19;;;-142.70;36.87
6224;BME280;3145;42.726;23.342;2024-02-15T08:30:38;72859.06;;;-142.70;36.48
6224;BME280;3145;42.726;23.342;2024-02-15T08:33:05;72818.75;;;-142.70;36.01
6224;BME280;3145;42.726;23.342;2024-02-15T08:35:31;72794.59;;;-142.70;35.58
6224;BME280;3145;42.726;23.342;2024-02-15T08:37:58;72774.44;;;-142.70;35.37
6224;BME280;3145;42.726;23.342;2024-02-15T08:40:25;72863.09;;;-142.70;35.51
6224;BME280;3145;42.726;23.342;2024-02-15T08:42:54;72846.97;;;-142.70;35.73
6224;BME280;3145;42.726;23.342;2024-02-15T08:45:21;72824.81;;;-142.70;36.04
6224;BME280;3145;42.726;23.342;2024-02-15T08:47:48;72810.72;;;-142.70;36.22
6224;BME280;3145;42.726;23.342;2024-02-15T08:50:18;72814.75;;;-142.70;35.56
6224;BME280;3145;42.726;23.342;2024-02-15T08:52:47;72838.91;;;-142.70;35.50
6224;BME280;3145;42.726;23.342;2024-02-15T08:55:14;72859.06;;;-142.70;35.86
6224;BME280;3145;42.726;23.342;2024-02-15T08:57:42;72881.22;;;-142.70;35.76
6224;BME280;3145;42.726;23.342;2024-02-15T09:00:12;72836.91;;;-142.70;36.25
6224;BME280;3145;42.726;23.342;2024-02-15T09:02:41;72851.00;;;-142.70;35.95
6224;BME280;3145;42.726;23.342;2024-02-15T09:05:08;72830.84;;;-142.70;35.83
6224;BME280;3145;42.726;23.342;2024-02-15T09:07:35;72788.53;;;-142.70;36.36
6224;BME280;3145;42.726;23.342;2024-02-15T09:10:02;72786.53;;;-142.70;35.23
6224;BME280;3145;42.726;23.342;2024-02-15T09:12:29;72770.41;;;-142.70;35.25
6224;BME280;3145;42.726;23.342;2024-02-15T09:14:56;72758.31;;;-142.70;35.06
6224;BME280;3145;42.726;23.342;2024-02-15T09:17:25;72782.50;;;-142.70;35.70
6224;BME280;3145;42.726;23.342;2024-02-15T09:19:51;72770.41;;;-142.70;35.11
6224;BME280;3145;42.726;23.342;2024-02-15T09:22:20;72738.19;;;-142.70;35.36
6224;BME280;3145;42.726;23.342;2024-02-15T09:24:46;72716.03;;;-142.70;34.64
6224;BME280;3145;42.726;23.342;2024-02-15T09:27:13;72740.19;;;-142.70;34.54
6224;BME280;3145;42.726;23.342;2024-02-15T09:29:41;72738.19;;;-142.70;35.04
6224;BME280;3145;42.726;23.342;2024-02-15T09:32:07;72716.03;;;-142.70;34.14
6224;BME280;3145;42.726;23.342;2024-02-15T09:34:36;72758.31;;;-142.70;34.66
6224;BME280;3145;42.726;23.342;2024-02-15T09:37:02;72774.44;;;-142.70;34.60
6224;BME280;3145;42.726;23.342;2024-02-15T09:39:30;72746.25;;;-142.70;34.55
6224;BME280;3145;42.726;23.342;2024-02-15T09:41:57;72738.19;;;-142.70;34.03
6224;BME280;3145;42.726;23.342;2024-02-15T09:44:24;72754.28;;;-142.70;34.96
6224;BME280;3145;42.726;23.342;2024-02-15T09:47:02;72790.56;;;-142.70;34.96
6224;BME280;3145;42.726;23.342;2024-02-15T09:49:35;72750.28;;;-142.70;35.33
6224;BME280;3145;42.726;23.342;2024-02-15T09:52:06;72726.09;;;-142.70;34.54
6224;BME280;3145;42.726;23.342;2024-02-15T09:54:34;72689.84;;;-142.70;34.59
6224;BME280;3145;42.726;23.342;2024-02-15T09:57:02;72681.78;;;-142.70;34.48
6224;BME280;3145;42.726;23.342;2024-02-15T09:59:30;72693.84;;;-142.70;34.30
6224;BME280;3145;42.726;23.342;2024-02-15T10:02:02;72730.13;;;-142.70;34.89
6224;BME280;3145;42.726;23.342;2024-02-15T10:04:29;72714.00;;;-142.70;34.93
6224;BME280;3145;42.726;23.342;2024-02-15T10:06:57;72697.88;;;-142.70;34.59
6224;BME280;3145;42.726;23.342;2024-02-15T10:09:25;72673.72;;;-142.70;33.68
6224;BME280;3145;42.726;23.342;2024-02-15T10:11:56;72703.94;;;-142.70;33.89
6224;BME280;3145;42.726;23.342;2024-02-15T10:14:24;72722.06;;;-142.70;34.12
6224;BME280;3145;42.726;23.342;2024-02-15T10:16:51;72742.22;;;-142.70;34.21
6224;BME280;3145;42.726;23.342;2024-02-15T10:19:19;72705.94;;;-142.70;34.06
6224;BME280;3145;42.726;23.342;2024-02-15T10:21:51;72758.31;;;-142.70;34.57
6224;BME280;3145;42.726;23.342;2024-02-15T10:24:21;72736.16;;;-142.70;34.29
6224;BME280;3145;42.726;23.342;2024-02-15T10:26:49;72685.81;;;-142.70;34.10
6224;BME280;3145;42.726;23.342;2024-02-15T10:29:16;72714.00;;;-142.70;34.21
6224;BME280;3145;42.726;23.342;2024-02-15T10:31:53;72705.94;;;-142.70;34.05
6224;BME280;3145;42.726;23.342;2024-02-15T10:34:20;72705.94;;;-142.70;34.26
6224;BME280;3145;42.726;23.342;2024-02-15T10:36:47;72714.00;;;-142.70;34.32
6224;BME280;3145;42.726;23.342;2024-02-15T10:39:16;72681.78;;;-142.70;34.56
6224;BME280;3145;42.726;23.342;2024-02-15T10:41:50;72681.78;;;-142.70;34.35
6224;BME280;3145;42.726;23.342;2024-02-15T10:44:19;72659.63;;;-142.70;34.35
6224;BME280;3145;42.726;23.342;2024-02-15T10:46:47;72709.97;;;-142.70;33.97
6224;BME280;3145;42.726;23.342;2024-02-15T10:49:17;72705.94;;;-142.70;34.22
6224;BME280;3145;42.726;23.342;2024-02-15T10:51:45;72712.00;;;-142.70;34.75
6224;BME280;3145;42.726;23.342;2024-02-15T10:54:21;72669.69;;;-142.70;34.38
6224;BME280;3145;42.726;23.342;2024-02-15T10:56:52;72699.91;;;-142.70;34.32
6224;BME280;3145;42.726;23.342;2024-02-15T10:59:24;72722.06;;;-142.70;34.98
6224;BME280;3145;42.726;23.342;2024-02-15T11:01:59;72744.22;;;-142.70;34.74
6224;BME280;3145;42.726;23.342;2024-02-15T11:04:27;72734.16;;;-142.70;34.55
6224;BME280;3145;42.726;23.342;2024-02-15T11:06:58;72722.06;;;-142.70;35.22
6224;BME280;3145;42.726;23.342;2024-02-15T11:09:27;72758.31;;;-142.70;35.44
6224;BME280;3145;42.726;23.342;2024-02-15T11:11:56;72730.13;;;-142.70;35.20
6224;BME280;3145;42.726;23.342;2024-02-15T11:14:24;72742.22;;;-142.70;34.38
6224;BME280;3145;42.726;23.342;2024-02-15T11:16:54;72742.22;;;-142.70;34.93
6224;BME280;3145;42.726;23.342;2024-02-15T11:19:42;72728.09;;;-142.70;34.83
6224;BME280;3145;42.726;23.342;2024-02-15T11:22:12;72786.53;;;-142.70;35.41
6224;BME280;3145;42.726;23.342;2024-02-15T11:24:46;72770.41;;;-142.70;35.47
6224;BME280;3145;42.726;23.342;2024-02-15T11:27:24;72724.06;;;-142.70;35.60
6224;BME280;3145;42.726;23.342;2024-02-15T11:29:53;72746.25;;;-142.70;35.18
6224;BME280;3145;42.726;23.342;2024-02-15T11:32:40;72722.06;;;-142.70;35.43
6224;BME280;3145;42.726;23.342;2024-02-15T11:35:09;72726.09;;;-142.70;35.32
6224;BME280;3145;42.726;23.342;2024-02-15T11:37:50;72716.03;;;-142.70;35.88
6224;BME280;3145;42.726;23.342;2024-02-15T11:40:19;72693.84;;;-142.70;35.58
6224;BME280;3145;42.726;23.342;2024-02-15T11:42:49;72740.19;;;-142.70;35.32
6224;BME280;3145;42.726;23.342;2024-02-15T11:45:16;72697.88;;;-142.70;35.58
6224;BME280;3145;42.726;23.342;2024-02-15T11:47:48;72675.72;;;-142.70;35.13
6224;BME280;3145;42.726;23.342;2024-02-15T11:50:16;72651.56;;;-142.70;34.96
6224;BME280;3145;42.726;23.342;2024-02-15T11:52:43;72657.59;;;-142.70;35.44
6224;BME280;3145;42.726;23.342;2024-02-15T11:55:11;72718.03;;;-142.70;35.43
6224;BME280;3145;42.726;23.342;2024-02-15T11:57:39;72718.03;;;-142.70;36.12
6224;BME280;3145;42.726;23.342;2024-02-15T12:00:22;72695.88;;;-142.70;35.76
6224;BME280;3145;42.726;23.342;2024-02-15T12:03:07;72665.66;;;-142.70;35.73
6224;BME280;3145;42.726;23.342;2024-02-15T12:05:51;72712.00;;;-142.70;35.36
6224;BME280;3145;42.726;23.342;2024-02-15T12:08:36;72705.94;;;-142.70;36.00
6224;BME280;3145;42.726;23.342;2024-02-15T12:11:21;72693.84;;;-142.70;35.86
6224;BME280;3145;42.726;23.342;2024-02-15T12:14:05;72679.75;;;-142.70;35.89
6224;BME280;3145;42.726;23.342;2024-02-15T12:17:03;72665.66;;;-142.70;35.90
6224;BME280;3145;42.726;23.342;2024-02-15T12:19:48;72663.63;;;-142.70;35.73
6224;BME280;3145;42.726;23.342;2024-02-15T12:22:18;72718.03;;;-142.70;35.76
6224;BME280;3145;42.726;23.342;2024-02-15T12:24:53;72728.09;;;-142.70;36.15
6224;BME280;3145;42.726;23.342;2024-02-15T12:27:20;72701.91;;;-142.70;36.24
6224;BME280;3145;42.726;23.342;2024-02-15T12:29:55;72714.00;;;-142.70;36.19
6224;BME280;3145;42.726;23.342;2024-02-15T12:32:26;72726.09;;;-142.70;36.77
6224;BME280;3145;42.726;23.342;2024-02-15T12:34:53;72701.91;;;-142.70;36.32
6224;BME280;3145;42.726;23.342;2024-02-15T12:37:21;72679.75;;;-142.70;36.03
6224;BME280;3145;42.726;23.342;2024-02-15T12:39:49;72728.09;;;-142.70;35.93
6224;BME280;3145;42.726;23.342;2024-02-15T12:42:16;72724.06;;;-142.70;36.04
6224;BME280;3145;42.726;23.342;2024-02-15T12:44:45;72732.13;;;-142.70;36.22
6224;BME280;3145;42.726;23.342;2024-02-15T12:47:19;72728.09;;;-142.70;36.14
6224;BME280;3145;42.726;23.342;2024-02-15T12:49:49;72738.19;;;-142.70;36.50
6224;BME280;3145;42.726;23.342;2024-02-15T12:52:36;72742.22;;;-142.70;36.09
6224;BME280;3145;42.726;23.342;2024-02-15T12:55:11;72748.25;;;-142.70;36.67
6224;BME280;3145;42.726;23.342;2024-02-15T12:57:39;72744.22;;;-142.70;36.82
6224;BME280;3145;42.726;23.342;2024-02-15T13:00:08;72742.22;;;-142.70;36.68